createdAt,value
2019-01-28T00:01:48.068Z,8.47
2019-01-28T00:04:21.962Z,8.60
2019-01-28T00:06:51.395Z,9.67
2019-01-28T00:09:20.811Z,9.80
2019-01-28T00:11:50.240Z,8.97
2019-01-28T00:14:27.368Z,10.03
2019-01-28T00:16:56.796Z,9.40
2019-01-28T00:19:26.228Z,9.50
2019-01-28T00:21:55.674Z,9.53
2019-01-28T00:24:43.191Z,9.17
2019-01-28T00:27:31.252Z,9.53
2019-01-28T00:30:18.988Z,9.00
2019-01-28T00:33:07.026Z,8.50
2019-01-28T00:35:36.520Z,9.33
2019-01-28T00:38:05.942Z,9.03
2019-01-28T00:40:35.525Z,8.83
2019-01-28T00:43:05.009Z,9.13
2019-01-28T00:45:34.433Z,9.43
2019-01-28T00:48:06.510Z,9.37
2019-01-28T00:50:35.914Z,8.73
2019-01-28T00:53:05.368Z,8.70
2019-01-28T00:55:34.779Z,9.10
2019-01-28T00:58:23.589Z,8.97
2019-01-28T01:00:55.697Z,8.67
2019-01-28T01:03:25.157Z,8.50
2019-01-28T01:05:54.582Z,7.33
2019-01-28T01:08:24.159Z,7.97
2019-01-28T01:10:56.300Z,7.17
2019-01-28T01:13:33.222Z,6.97
2019-01-28T01:16:02.668Z,6.87
2019-01-28T01:18:32.065Z,6.90
2019-01-28T01:21:01.476Z,6.43
2019-01-28T01:23:36.889Z,7.07
2019-01-28T01:26:07.034Z,5.87
2019-01-28T01:28:36.437Z,6.10
2019-01-28T01:31:05.897Z,6.00
2019-01-28T01:33:35.409Z,5.90
2019-01-28T01:36:04.817Z,5.80
2019-01-28T01:38:34.211Z,5.23
2019-01-28T01:41:04.812Z,5.60
2019-01-28T01:43:36.848Z,4.73
2019-01-28T01:46:06.258Z,5.13
2019-01-28T01:48:35.674Z,3.80
2019-01-28T01:51:05.064Z,4.87
2019-01-28T01:53:34.462Z,5.27
2019-01-28T01:56:06.506Z,4.70
2019-01-28T01:58:35.899Z,4.80
2019-01-28T02:01:05.357Z,4.57
2019-01-28T02:03:34.779Z,4.60
2019-01-28T02:06:04.214Z,4.10
2019-01-28T02:08:36.293Z,4.60
2019-01-28T02:11:19.128Z,4.97
2019-01-28T02:13:48.548Z,4.83
2019-01-28T02:16:20.770Z,4.83
2019-01-28T02:18:50.202Z,4.53
2019-01-28T02:21:19.606Z,4.27
2019-01-28T02:23:49.117Z,4.13
2019-01-28T02:26:30.200Z,5.20
2019-01-28T02:29:05.560Z,5.00
2019-01-28T02:31:35.039Z,5.70
2019-01-28T02:34:04.425Z,4.77
2019-01-28T02:36:36.504Z,4.83
2019-01-28T02:39:07.455Z,5.57
2019-01-28T02:41:37.389Z,5.03
2019-01-28T02:44:15.755Z,6.37
2019-01-28T02:46:45.178Z,5.50
2019-01-28T02:49:14.580Z,6.17
2019-01-28T02:51:44.073Z,5.80
2019-01-28T02:54:16.247Z,6.03
2019-01-28T02:56:45.656Z,5.30
2019-01-28T02:59:17.746Z,5.87
2019-01-28T03:01:47.126Z,6.37
2019-01-28T03:04:16.537Z,6.93
2019-01-28T03:06:45.937Z,6.50
2019-01-28T03:09:26.362Z,5.87
2019-01-28T03:11:55.810Z,6.40
2019-01-28T03:14:25.210Z,7.23
2019-01-28T03:16:57.829Z,6.30
2019-01-28T03:19:27.245Z,7.10
2019-01-28T03:21:56.694Z,6.27
2019-01-28T03:24:39.472Z,5.93
2019-01-28T03:27:08.956Z,5.17
2019-01-28T03:29:38.422Z,5.50
2019-01-28T03:32:07.936Z,6.20
2019-01-28T03:34:45.115Z,5.67
2019-01-28T03:37:19.434Z,4.93
2019-01-28T03:39:48.853Z,4.63
2019-01-28T03:42:18.342Z,5.70
2019-01-28T03:44:47.760Z,4.57
2019-01-28T03:47:17.148Z,5.17
2019-01-28T03:49:46.656Z,5.13
2019-01-28T03:52:16.641Z,4.80
2019-01-28T03:55:00.310Z,4.80
2019-01-28T03:57:38.829Z,6.63
2019-01-28T04:00:11.508Z,6.00
2019-01-28T04:02:40.913Z,5.30
2019-01-28T04:05:10.986Z,4.90
2019-01-28T04:07:40.424Z,4.73
2019-01-28T04:10:12.918Z,5.53
2019-01-28T04:12:46.880Z,5.80
2019-01-28T04:15:18.260Z,5.73
2019-01-28T04:17:47.679Z,5.63
2019-01-28T04:20:17.085Z,5.10
2019-01-28T04:22:46.735Z,5.37
2019-01-28T04:25:20.298Z,6.07
2019-01-28T04:27:56.900Z,5.30
2019-01-28T04:30:27.169Z,5.60
2019-01-28T04:33:16.007Z,5.27
2019-01-28T04:35:45.475Z,4.93
2019-01-28T04:38:14.918Z,5.00
2019-01-28T04:40:47.104Z,5.33
2019-01-28T04:43:16.580Z,5.23
2019-01-28T04:45:46.020Z,5.37
2019-01-28T04:48:39.874Z,5.50
2019-01-28T04:51:09.325Z,6.80
2019-01-28T04:53:38.746Z,6.20
2019-01-28T04:56:08.257Z,7.13
2019-01-28T04:58:37.682Z,7.53
2019-01-28T05:01:07.148Z,7.23
2019-01-28T05:03:41.464Z,6.53
2019-01-28T05:06:10.874Z,7.57
2019-01-28T05:08:47.253Z,7.37
2019-01-28T05:11:16.684Z,6.70
2019-01-28T05:14:05.590Z,6.27
2019-01-28T05:16:35.790Z,6.50
2019-01-28T05:19:05.230Z,7.10
2019-01-28T05:21:34.634Z,6.63
2019-01-28T05:24:07.035Z,6.53
2019-01-28T05:26:36.491Z,6.30
2019-01-28T05:29:25.392Z,6.07
2019-01-28T05:31:56.429Z,6.30
2019-01-28T05:34:44.357Z,5.80
2019-01-28T05:37:17.393Z,5.77
2019-01-28T05:39:49.875Z,6.00
2019-01-28T05:42:37.562Z,5.90
2019-01-28T05:45:10.361Z,5.60
2019-01-28T05:47:39.804Z,5.63
2019-01-28T05:50:10.838Z,5.70
2019-01-28T05:52:40.513Z,4.90
2019-01-28T05:55:29.312Z,5.33
2019-01-28T05:58:00.483Z,5.07
2019-01-28T06:00:31.495Z,4.63
2019-01-28T06:03:00.908Z,4.90
2019-01-28T06:05:30.321Z,5.30
2019-01-28T06:07:59.704Z,5.53
2019-01-28T06:10:40.393Z,5.60
2019-01-28T06:13:09.810Z,5.70
2019-01-28T06:15:39.188Z,5.47
2019-01-28T06:18:10.249Z,5.70
2019-01-28T06:20:39.784Z,5.20
2019-01-28T06:23:09.607Z,6.27
2019-01-28T06:25:46.153Z,6.63
2019-01-28T06:28:26.020Z,6.10
2019-01-28T06:30:55.484Z,6.73
2019-01-28T06:33:26.904Z,6.97
2019-01-28T06:35:56.351Z,6.57
2019-01-28T06:38:25.764Z,7.27
2019-01-28T06:40:55.229Z,7.13
2019-01-28T06:43:24.644Z,7.30
2019-01-28T06:45:54.435Z,7.00
2019-01-28T06:48:23.917Z,6.90
2019-01-28T06:50:56.185Z,6.90
2019-01-28T06:53:25.628Z,7.23
2019-01-28T06:56:13.081Z,6.87
2019-01-28T06:58:50.446Z,7.23
2019-01-28T07:01:24.859Z,6.97
2019-01-28T07:04:02.267Z,6.30
2019-01-28T07:06:34.769Z,6.87
2019-01-28T07:09:07.115Z,7.00
2019-01-28T07:11:48.929Z,7.70
2019-01-28T07:14:18.321Z,7.60
2019-01-28T07:16:47.892Z,7.70
2019-01-28T07:19:17.299Z,7.80
2019-01-28T07:21:46.764Z,8.43
2019-01-28T07:24:16.220Z,8.07
2019-01-28T07:26:45.615Z,8.67
2019-01-28T07:29:15.640Z,8.50
2019-01-28T07:32:04.438Z,8.73
2019-01-28T07:34:38.403Z,8.87
2019-01-28T07:37:07.819Z,8.30
2019-01-28T07:39:37.242Z,8.07
2019-01-28T07:42:06.812Z,8.13
2019-01-28T07:44:36.320Z,8.50
2019-01-28T07:47:06.187Z,8.67
2019-01-28T07:49:35.606Z,9.50
2019-01-28T07:52:05.096Z,9.80
2019-01-28T07:54:37.415Z,10.53
2019-01-28T07:57:26.241Z,10.60
2019-01-28T07:59:58.900Z,10.40
2019-01-28T08:02:28.310Z,11.67
2019-01-28T08:04:57.727Z,10.63
2019-01-28T08:07:30.006Z,10.47
2019-01-28T08:09:59.645Z,10.60
2019-01-28T08:12:32.020Z,9.73
2019-01-28T08:15:01.429Z,10.30
2019-01-28T08:17:30.929Z,10.73
2019-01-28T08:20:00.347Z,10.43
2019-01-28T08:22:32.806Z,12.23
2019-01-28T08:25:10.255Z,11.90
2019-01-28T08:27:46.991Z,13.00
2019-01-28T08:30:21.330Z,11.63
2019-01-28T08:32:50.839Z,12.97
2019-01-28T08:35:20.328Z,11.47
2019-01-28T08:37:49.855Z,12.43
2019-01-28T08:40:25.004Z,11.33
2019-01-28T08:42:54.502Z,13.37
2019-01-28T08:45:23.969Z,12.43
2019-01-28T08:47:56.286Z,12.83
2019-01-28T08:50:27.550Z,11.93
2019-01-28T08:52:57.051Z,11.50
2019-01-28T08:55:29.203Z,11.33
2019-01-28T08:58:00.411Z,12.37
2019-01-28T09:00:32.883Z,11.73
2019-01-28T09:03:20.488Z,10.40
2019-01-28T09:06:09.846Z,11.30
2019-01-28T09:08:41.834Z,10.03
2019-01-28T09:11:11.292Z,10.03
2019-01-28T09:13:58.761Z,8.87
2019-01-28T09:16:28.239Z,8.57
2019-01-28T09:19:00.367Z,8.13
2019-01-28T09:21:29.811Z,8.93
2019-01-28T09:23:59.204Z,8.27
2019-01-28T09:26:28.643Z,7.77
2019-01-28T09:29:03.011Z,9.07
2019-01-28T09:31:35.199Z,8.07
2019-01-28T09:34:04.678Z,7.17
2019-01-28T09:36:34.106Z,8.10
2019-01-28T09:39:07.437Z,7.57
2019-01-28T09:41:36.990Z,7.50
2019-01-28T09:44:25.196Z,7.73
2019-01-28T09:46:54.649Z,7.07
2019-01-28T09:49:24.230Z,6.77
2019-01-28T09:51:56.297Z,6.30
2019-01-28T09:54:25.705Z,5.67
2019-01-28T09:56:58.082Z,6.10
2019-01-28T09:59:27.671Z,5.40
2019-01-28T10:02:07.910Z,5.00
2019-01-28T10:04:37.551Z,5.03
2019-01-28T10:07:07.073Z,5.00
2019-01-28T10:09:36.469Z,5.27
2019-01-28T10:12:06.660Z,3.73
2019-01-28T10:14:36.271Z,3.57
2019-01-28T10:17:05.728Z,3.93
2019-01-28T10:19:35.217Z,4.13
2019-01-28T10:22:04.866Z,3.77
2019-01-28T10:24:34.320Z,3.80
2019-01-28T10:27:07.880Z,3.67
2019-01-28T10:29:37.301Z,4.30
2019-01-28T10:32:06.836Z,3.67
2019-01-28T10:34:39.358Z,4.17
2019-01-28T10:37:12.346Z,5.30
2019-01-28T10:39:43.356Z,4.67
2019-01-28T10:42:15.622Z,5.73
2019-01-28T10:44:45.016Z,5.77
2019-01-28T10:47:14.547Z,6.70
2019-01-28T10:49:45.129Z,5.70
2019-01-28T10:52:14.638Z,6.17
2019-01-28T10:54:44.333Z,4.90
2019-01-28T10:57:14.744Z,5.00
2019-01-28T10:59:48.671Z,5.37
2019-01-28T11:02:18.117Z,5.73
2019-01-28T11:04:47.623Z,6.10
2019-01-28T11:07:17.290Z,5.70
2019-01-28T11:09:46.739Z,5.40
2019-01-28T11:12:19.580Z,5.87
2019-01-28T11:14:50.897Z,5.60
2019-01-28T11:17:20.321Z,5.17
2019-01-28T11:19:55.793Z,5.17
2019-01-28T11:22:39.141Z,3.70
2019-01-28T11:25:16.580Z,5.30
2019-01-28T11:27:45.993Z,4.00
2019-01-28T11:30:26.696Z,4.80
2019-01-28T11:33:09.220Z,5.00
2019-01-28T11:35:38.936Z,4.27
2019-01-28T11:38:08.460Z,4.87
2019-01-28T11:40:37.875Z,3.80
2019-01-28T11:43:07.404Z,4.80
2019-01-28T11:45:39.899Z,4.67
2019-01-28T11:48:09.386Z,4.17
2019-01-28T11:50:41.929Z,3.93
2019-01-28T11:53:11.385Z,3.87
2019-01-28T11:55:40.853Z,3.53
2019-01-28T11:58:15.532Z,3.63
2019-01-28T12:00:49.371Z,4.17
2019-01-28T12:03:18.889Z,3.47
2019-01-28T12:06:06.475Z,4.40
2019-01-28T12:08:35.965Z,4.10
2019-01-28T12:11:05.657Z,3.80
2019-01-28T12:13:35.072Z,4.17
2019-01-28T12:16:04.543Z,3.67
2019-01-28T12:18:33.950Z,3.60
2019-01-28T12:21:06.220Z,3.73
2019-01-28T12:23:35.625Z,3.60
2019-01-28T12:26:24.554Z,4.00
2019-01-28T12:28:54.234Z,4.77
2019-01-28T12:31:26.320Z,3.73
2019-01-28T12:33:55.848Z,3.37
2019-01-28T12:36:28.457Z,2.77
2019-01-28T12:38:57.864Z,3.53
2019-01-28T12:41:27.257Z,2.80
2019-01-28T12:43:56.797Z,2.90
2019-01-28T12:46:26.279Z,2.77
2019-01-28T12:48:55.780Z,3.50
2019-01-28T12:51:25.296Z,2.93
2019-01-28T12:53:55.432Z,2.90
2019-01-28T12:56:24.814Z,3.83
2019-01-28T12:58:54.215Z,2.80
2019-01-28T13:01:25.255Z,3.50
2019-01-28T13:03:54.657Z,2.87
2019-01-28T13:06:24.117Z,3.43
2019-01-28T13:08:56.365Z,3.23
2019-01-28T13:11:28.753Z,3.13
2019-01-28T13:13:58.163Z,3.20
2019-01-28T13:16:27.608Z,3.20
2019-01-28T13:19:00.890Z,3.10
2019-01-28T13:21:30.937Z,3.30
2019-01-28T13:24:00.432Z,2.93
2019-01-28T13:26:29.855Z,2.73
2019-01-28T13:29:01.902Z,3.63
2019-01-28T13:31:33.054Z,2.70
2019-01-28T13:34:05.168Z,3.03
2019-01-28T13:36:34.567Z,3.50
2019-01-28T13:39:05.505Z,4.27
2019-01-28T13:41:34.946Z,3.87
2019-01-28T13:44:04.370Z,3.40
2019-01-28T13:46:33.771Z,4.10
2019-01-28T13:49:14.379Z,3.70
2019-01-28T13:51:48.580Z,3.70
2019-01-28T13:54:20.815Z,3.47
2019-01-28T13:56:50.416Z,3.63
2019-01-28T13:59:19.920Z,3.40
2019-01-28T14:02:00.318Z,3.13
2019-01-28T14:04:29.783Z,3.50
2019-01-28T14:06:59.186Z,3.07
2019-01-28T14:09:28.618Z,3.57
2019-01-28T14:11:58.045Z,3.60
2019-01-28T14:14:29.071Z,3.93
2019-01-28T14:16:58.475Z,3.97
2019-01-28T14:19:28.159Z,3.97
2019-01-28T14:21:57.687Z,3.83
2019-01-28T14:24:31.029Z,4.53
2019-01-28T14:27:03.723Z,4.17
2019-01-28T14:29:42.089Z,3.90
2019-01-28T14:32:11.549Z,4.17
2019-01-28T14:34:41.069Z,4.20
2019-01-28T14:37:10.497Z,4.20
2019-01-28T14:39:40.041Z,4.43
2019-01-28T14:42:12.177Z,4.03
2019-01-28T14:44:41.602Z,4.37
2019-01-28T14:47:11.091Z,4.70
2019-01-28T14:49:40.589Z,4.93
2019-01-28T14:52:11.642Z,4.40
2019-01-28T14:54:41.088Z,5.23
2019-01-28T14:57:10.494Z,4.90
2019-01-28T14:59:39.912Z,4.67
2019-01-28T15:02:09.514Z,5.00
2019-01-28T15:04:43.588Z,4.80
2019-01-28T15:07:13.096Z,4.30
2019-01-28T15:09:45.245Z,3.83
2019-01-28T15:12:14.714Z,4.53
2019-01-28T15:14:44.153Z,4.43
2019-01-28T15:17:16.630Z,3.87
2019-01-28T15:19:52.331Z,3.57
2019-01-28T15:22:23.369Z,3.77
2019-01-28T15:24:52.884Z,3.43
2019-01-28T15:27:25.015Z,4.83
2019-01-28T15:29:54.514Z,3.90
2019-01-28T15:32:26.581Z,3.53
2019-01-28T15:35:01.028Z,4.13
2019-01-28T15:37:49.048Z,3.60
2019-01-28T15:40:21.315Z,3.40
2019-01-28T15:42:50.894Z,3.27
2019-01-28T15:45:27.531Z,3.30
2019-01-28T15:47:56.950Z,4.13
2019-01-28T15:50:26.339Z,3.70
2019-01-28T15:52:57.118Z,4.13
2019-01-28T15:55:29.394Z,3.60
2019-01-28T15:57:58.808Z,4.30
2019-01-28T16:00:30.544Z,3.67
2019-01-28T16:03:00.330Z,3.20
2019-01-28T16:05:47.998Z,3.80
2019-01-28T16:08:17.439Z,3.00
2019-01-28T16:10:46.885Z,3.93
2019-01-28T16:13:16.284Z,3.10
2019-01-28T16:15:46.270Z,3.70
2019-01-28T16:18:15.699Z,3.63
2019-01-28T16:20:45.129Z,2.87
2019-01-28T16:23:32.807Z,3.30
2019-01-28T16:26:20.314Z,3.57
2019-01-28T16:29:07.865Z,3.17
2019-01-28T16:31:37.366Z,2.73
2019-01-28T16:34:06.911Z,3.50
2019-01-28T16:36:36.348Z,3.27
2019-01-28T16:39:07.187Z,3.03
2019-01-28T16:41:36.657Z,3.03
2019-01-28T16:44:06.148Z,3.13
2019-01-28T16:46:35.772Z,3.20
2019-01-28T16:49:05.241Z,3.27
2019-01-28T16:51:34.758Z,2.83
2019-01-28T16:54:05.496Z,3.00
2019-01-28T16:56:34.924Z,3.37
2019-01-28T16:59:04.403Z,3.43
2019-01-28T17:01:36.559Z,4.33
2019-01-28T17:04:06.169Z,3.40
2019-01-28T17:06:41.309Z,3.20
2019-01-28T17:09:10.756Z,3.47
2019-01-28T17:11:59.163Z,3.40
2019-01-28T17:14:28.633Z,3.53
2019-01-28T17:17:00.845Z,3.43
2019-01-28T17:19:30.249Z,3.73
2019-01-28T17:22:13.697Z,3.60
2019-01-28T17:24:43.215Z,3.57
2019-01-28T17:27:34.596Z,4.00
2019-01-28T17:30:12.922Z,3.30
2019-01-28T17:32:53.637Z,3.53
2019-01-28T17:35:38.298Z,3.50
2019-01-28T17:38:08.587Z,4.30
2019-01-28T17:40:41.655Z,3.47
2019-01-28T17:43:11.576Z,3.80
2019-01-28T17:45:41.194Z,3.97
2019-01-28T17:48:12.240Z,3.70
2019-01-28T17:50:44.047Z,3.43
2019-01-28T17:53:13.514Z,3.70
2019-01-28T17:55:45.666Z,3.23
2019-01-28T17:58:15.364Z,3.43
2019-01-28T18:00:46.406Z,3.27
2019-01-28T18:03:15.810Z,3.57
2019-01-28T18:05:48.196Z,3.23
2019-01-28T18:08:35.907Z,3.00
2019-01-28T18:11:23.653Z,3.67
2019-01-28T18:13:56.253Z,2.80
2019-01-28T18:16:25.705Z,3.10
2019-01-28T18:18:55.129Z,3.73
2019-01-28T18:21:24.530Z,3.20
2019-01-28T18:23:53.940Z,2.93
2019-01-28T18:26:26.236Z,2.93
2019-01-28T18:28:55.634Z,3.00
2019-01-28T18:31:27.711Z,3.47
2019-01-28T18:33:59.553Z,4.07
2019-01-28T18:36:30.808Z,3.50
2019-01-28T18:39:00.246Z,4.47
2019-01-28T18:41:29.785Z,3.43
2019-01-28T18:44:06.755Z,4.00
2019-01-28T18:46:36.173Z,3.87
2019-01-28T18:49:05.583Z,4.23
2019-01-28T18:51:35.111Z,4.00
2019-01-28T18:54:04.756Z,3.97
2019-01-28T18:56:34.392Z,3.60
2019-01-28T18:59:08.306Z,4.20
2019-01-28T19:01:37.766Z,3.43
2019-01-28T19:04:07.210Z,4.50
2019-01-28T19:06:38.310Z,3.27
2019-01-28T19:09:09.308Z,3.63
2019-01-28T19:11:40.334Z,3.17
2019-01-28T19:14:29.922Z,3.80
2019-01-28T19:17:01.191Z,3.83
2019-01-28T19:19:38.092Z,3.90
2019-01-28T19:22:14.618Z,3.67
2019-01-28T19:24:46.877Z,3.47
2019-01-28T19:27:34.455Z,4.20
2019-01-28T19:30:15.292Z,3.77
2019-01-28T19:32:44.713Z,3.50
2019-01-28T19:35:14.140Z,3.47
2019-01-28T19:37:46.357Z,3.73
2019-01-28T19:40:15.765Z,3.43
2019-01-28T19:42:45.270Z,4.13
2019-01-28T19:45:17.651Z,3.60
2019-01-28T19:47:47.369Z,3.87
2019-01-28T19:50:19.082Z,4.23
2019-01-28T19:52:48.610Z,4.43
2019-01-28T19:55:20.026Z,4.10
2019-01-28T19:58:01.776Z,4.70
2019-01-28T20:00:31.218Z,5.33
2019-01-28T20:03:00.733Z,4.80
2019-01-28T20:05:30.142Z,5.37
2019-01-28T20:07:59.622Z,4.80
2019-01-28T20:10:42.398Z,5.03
2019-01-28T20:13:23.883Z,5.53
2019-01-28T20:15:58.002Z,6.00
2019-01-28T20:18:27.411Z,5.33
2019-01-28T20:20:56.808Z,4.93
2019-01-28T20:23:26.956Z,4.87
2019-01-28T20:25:57.546Z,5.20
2019-01-28T20:28:27.000Z,4.57
2019-01-28T20:30:56.435Z,5.30
2019-01-28T20:33:45.200Z,4.93
2019-01-28T20:36:14.639Z,5.07
2019-01-28T20:38:51.847Z,5.83
2019-01-28T20:41:21.286Z,5.47
2019-01-28T20:43:53.663Z,5.87
2019-01-28T20:46:26.066Z,5.87
2019-01-28T20:49:14.828Z,5.67
2019-01-28T20:51:44.308Z,5.73
2019-01-28T20:54:16.510Z,6.07
2019-01-28T20:56:45.989Z,6.67
2019-01-28T20:59:15.643Z,5.77
2019-01-28T21:01:45.043Z,6.00
2019-01-28T21:04:14.511Z,6.30
2019-01-28T21:06:44.041Z,6.80
2019-01-28T21:09:13.489Z,5.73
2019-01-28T21:11:42.978Z,5.57
2019-01-28T21:14:25.336Z,5.93
2019-01-28T21:16:54.767Z,6.03
2019-01-28T21:19:24.142Z,6.27
2019-01-28T21:22:12.938Z,6.50
2019-01-28T21:24:45.067Z,6.53
2019-01-28T21:27:33.946Z,7.47
2019-01-28T21:30:09.503Z,6.27
2019-01-28T21:32:52.351Z,6.17
2019-01-28T21:35:38.199Z,6.17
2019-01-28T21:38:09.195Z,6.73
2019-01-28T21:40:38.627Z,5.93
2019-01-28T21:43:08.046Z,6.13
2019-01-28T21:45:37.538Z,5.90
2019-01-28T21:48:06.951Z,5.90
2019-01-28T21:50:36.364Z,5.60
2019-01-28T21:53:11.170Z,5.30
2019-01-28T21:55:45.501Z,5.30
2019-01-28T21:58:17.452Z,5.60
2019-01-28T22:00:47.213Z,5.27
2019-01-28T22:03:16.721Z,4.70
2019-01-28T22:05:46.199Z,5.40
2019-01-28T22:08:15.649Z,5.07
2019-01-28T22:10:45.089Z,5.20
2019-01-28T22:13:14.574Z,5.37
2019-01-28T22:15:44.012Z,4.73
2019-01-28T22:18:16.431Z,4.73
2019-01-28T22:20:45.829Z,4.73
2019-01-28T22:23:15.279Z,4.53
2019-01-28T22:25:47.456Z,4.93
2019-01-28T22:28:16.904Z,4.90
2019-01-28T22:30:46.366Z,4.30
2019-01-28T22:33:15.970Z,4.83
2019-01-28T22:35:51.382Z,4.30
2019-01-28T22:38:26.488Z,4.80
2019-01-28T22:41:00.142Z,4.93
2019-01-28T22:43:32.446Z,4.37
2019-01-28T22:46:01.854Z,5.40
2019-01-28T22:48:31.262Z,5.77
2019-01-28T22:51:00.743Z,5.73
2019-01-28T22:53:30.146Z,5.83
2019-01-28T22:56:01.206Z,5.70
2019-01-28T22:58:30.695Z,6.23
2019-01-28T23:01:03.283Z,6.23
2019-01-28T23:03:43.210Z,6.20
2019-01-28T23:06:15.959Z,6.10
2019-01-28T23:08:45.522Z,6.63
2019-01-28T23:11:18.061Z,6.90
2019-01-28T23:13:47.504Z,7.93
2019-01-28T23:16:17.081Z,7.97
2019-01-28T23:18:48.151Z,7.80
2019-01-28T23:21:17.568Z,7.00
2019-01-28T23:23:46.980Z,7.77
2019-01-28T23:26:16.414Z,6.87
2019-01-28T23:28:46.657Z,7.30
2019-01-28T23:31:22.111Z,8.00
2019-01-28T23:33:51.512Z,8.40
2019-01-28T23:36:21.002Z,7.87
2019-01-28T23:39:12.597Z,7.73
2019-01-28T23:41:51.395Z,8.10
2019-01-28T23:44:20.873Z,8.77
2019-01-28T23:46:50.262Z,8.77
2019-01-28T23:49:19.670Z,8.23
2019-01-28T23:51:49.082Z,9.13
2019-01-28T23:54:18.574Z,9.57
2019-01-28T23:56:49.327Z,8.77
2019-01-28T23:59:18.773Z,9.00
